createdAt,value
2022-08-30T00:03:17.256Z,62.25
2022-08-30T00:08:39.173Z,62.17
2022-08-30T00:14:00.375Z,62.00
2022-08-30T00:19:20.943Z,62.44
2022-08-30T00:24:41.812Z,62.26
2022-08-30T00:30:03.016Z,61.99
2022-08-30T00:35:24.255Z,62.28
2022-08-30T00:40:46.211Z,62.51
2022-08-30T00:46:08.612Z,62.22
2022-08-30T00:51:32.022Z,62.81
2022-08-30T00:56:53.287Z,62.55
2022-08-30T01:02:14.571Z,62.41
2022-08-30T01:07:35.303Z,62.27
2022-08-30T01:12:56.197Z,62.37
2022-08-30T01:18:18.893Z,62.09
2022-08-30T01:23:46.278Z,62.13
2022-08-30T01:29:11.933Z,62.02
2022-08-30T01:34:32.718Z,62.21
2022-08-30T01:39:53.890Z,62.41
2022-08-30T01:45:14.528Z,62.15
2022-08-30T01:50:35.233Z,62.41
2022-08-30T01:55:59.208Z,62.56
2022-08-30T02:01:23.777Z,63.03
2022-08-30T02:06:44.828Z,63.56
2022-08-30T02:12:08.084Z,63.06
2022-08-30T02:17:29.047Z,63.26
2022-08-30T02:22:50.307Z,63.07
2022-08-30T02:28:11.792Z,63.16
2022-08-30T02:33:38.024Z,63.23
2022-08-30T02:39:01.227Z,63.08
2022-08-30T02:44:21.954Z,63.59
2022-08-30T02:49:42.842Z,63.53
2022-08-30T02:55:05.413Z,62.98
2022-08-30T03:00:26.068Z,63.48
2022-08-30T03:05:46.819Z,63.05
2022-08-30T03:11:07.825Z,63.37
2022-08-30T03:16:28.553Z,63.48
2022-08-30T03:21:50.437Z,63.41
2022-08-30T03:27:12.665Z,63.11
2022-08-30T03:32:34.111Z,62.96
2022-08-30T03:37:56.269Z,63.25
2022-08-30T03:43:17.526Z,63.70
2022-08-30T03:48:38.522Z,63.66
2022-08-30T03:53:59.927Z,63.44
2022-08-30T03:59:21.016Z,63.74
2022-08-30T04:04:42.078Z,63.73
2022-08-30T04:10:05.356Z,64.00
2022-08-30T04:15:25.960Z,63.77
2022-08-30T04:20:47.489Z,63.50
2022-08-30T04:26:08.828Z,63.79
2022-08-30T04:31:31.724Z,63.51
2022-08-30T04:36:52.824Z,63.81
2022-08-30T04:42:13.929Z,63.78
2022-08-30T04:47:35.179Z,63.79
2022-08-30T04:52:55.656Z,63.92
2022-08-30T04:58:16.727Z,63.84
2022-08-30T05:03:37.851Z,64.04
2022-08-30T05:09:00.921Z,64.25
2022-08-30T05:14:21.513Z,64.36
2022-08-30T05:19:42.427Z,64.17
2022-08-30T05:25:05.157Z,64.05
2022-08-30T05:30:27.919Z,64.18
2022-08-30T05:35:48.899Z,64.42
2022-08-30T05:41:10.786Z,64.82
2022-08-30T05:51:55.506Z,64.93
2022-08-30T05:57:17.530Z,65.02
2022-08-30T06:02:38.373Z,65.04
2022-08-30T06:07:59.120Z,64.70
2022-08-30T06:13:19.765Z,64.51
2022-08-30T06:18:41.122Z,64.49
2022-08-30T06:24:04.275Z,64.36
2022-08-30T06:29:25.289Z,64.69
2022-08-30T06:34:46.124Z,64.50
2022-08-30T06:40:07.512Z,63.91
2022-08-30T06:45:28.089Z,63.95
2022-08-30T06:50:54.097Z,63.58
2022-08-30T06:56:17.868Z,62.89
2022-08-30T07:01:39.188Z,63.75
2022-08-30T07:07:00.350Z,63.70
2022-08-30T07:12:21.572Z,63.42
2022-08-30T07:18:01.381Z,63.04
2022-08-30T07:23:21.930Z,62.74
2022-08-30T07:28:44.914Z,62.70
2022-08-30T07:34:07.549Z,62.49
2022-08-30T07:39:28.889Z,62.30
2022-08-30T07:44:56.508Z,62.28
2022-08-30T07:50:17.502Z,62.24
2022-08-30T07:55:38.912Z,62.82
2022-08-30T08:01:00.292Z,62.65
2022-08-30T08:06:23.740Z,62.89
2022-08-30T08:11:44.307Z,62.91
2022-08-30T08:17:05.193Z,63.51
2022-08-30T08:22:26.007Z,63.62
2022-08-30T08:27:49.092Z,63.51
2022-08-30T08:33:10.745Z,63.75
2022-08-30T08:38:32.096Z,63.18
2022-08-30T08:43:52.952Z,63.44
2022-08-30T08:49:13.707Z,63.18
2022-08-30T08:54:43.052Z,63.22
2022-08-30T09:00:10.271Z,62.40
2022-08-30T09:05:41.103Z,62.22
2022-08-30T09:11:13.514Z,62.79
2022-08-30T09:16:48.110Z,62.07
2022-08-30T09:22:35.753Z,62.18
2022-08-30T09:28:12.051Z,62.26
2022-08-30T09:33:33.694Z,62.49
2022-08-30T09:39:01.958Z,61.75
2022-08-30T09:44:28.010Z,61.85
2022-08-30T09:49:49.243Z,61.97
2022-08-30T09:55:32.149Z,62.11
2022-08-30T10:01:04.553Z,62.30
2022-08-30T10:06:34.072Z,61.66
2022-08-30T10:12:23.023Z,62.29
2022-08-30T10:18:04.660Z,61.78
2022-08-30T10:23:33.885Z,61.59
2022-08-30T10:29:02.344Z,62.05
2022-08-30T10:34:39.950Z,62.01
2022-08-30T10:40:28.344Z,62.50
2022-08-30T10:45:51.364Z,62.67
2022-08-30T10:51:26.821Z,62.02
2022-08-30T10:56:54.352Z,61.82
2022-08-30T11:02:30.753Z,62.15
2022-08-30T11:08:37.354Z,61.76
2022-08-30T11:14:05.444Z,61.95
2022-08-30T11:19:32.179Z,61.62
2022-08-30T11:25:09.675Z,61.55
2022-08-30T11:30:31.077Z,61.89
2022-08-30T11:35:53.740Z,61.69
2022-08-30T11:41:30.608Z,61.53
2022-08-30T11:46:59.931Z,61.31
2022-08-30T11:52:42.219Z,60.87
2022-08-30T11:58:11.579Z,60.63
2022-08-30T12:03:35.134Z,60.50
2022-08-30T12:09:02.715Z,60.71
2022-08-30T12:14:49.564Z,60.64
2022-08-30T12:20:22.962Z,60.38
2022-08-30T12:25:43.808Z,59.84
2022-08-30T12:31:11.613Z,60.27
2022-08-30T12:36:39.546Z,59.80
2022-08-30T12:42:19.093Z,59.92
2022-08-30T12:47:52.623Z,59.69
2022-08-30T12:53:14.392Z,60.01
2022-08-30T12:58:52.642Z,59.69
2022-08-30T13:04:21.393Z,59.90
2022-08-30T13:09:44.360Z,59.56
2022-08-30T13:15:19.877Z,59.62
2022-08-30T13:20:40.990Z,59.22
2022-08-30T13:26:01.984Z,58.97
2022-08-30T13:31:23.127Z,59.15
2022-08-30T13:36:48.293Z,59.24
2022-08-30T13:47:50.478Z,59.67
2022-08-30T13:53:11.572Z,59.09
2022-08-30T13:58:33.431Z,59.60
2022-08-30T14:09:35.423Z,59.21
2022-08-30T14:14:59.524Z,59.14
2022-08-30T14:20:20.985Z,58.84
2022-08-30T14:25:41.847Z,59.43
2022-08-30T14:31:02.631Z,59.13
2022-08-30T14:36:23.625Z,59.15
2022-08-30T14:41:52.106Z,58.95
2022-08-30T14:47:13.004Z,58.92
2022-08-30T14:52:34.183Z,58.68
2022-08-30T14:57:54.809Z,59.41
2022-08-30T15:03:15.709Z,58.85
2022-08-30T15:08:37.333Z,58.72
2022-08-30T15:13:58.285Z,59.31
2022-08-30T15:19:19.238Z,59.06
2022-08-30T15:24:40.959Z,58.63
2022-08-30T15:30:01.898Z,58.72
2022-08-30T15:35:22.874Z,58.54
2022-08-30T15:40:44.763Z,58.86
2022-08-30T15:46:30.088Z,58.65
2022-08-30T15:51:54.355Z,58.89
2022-08-30T15:57:15.873Z,59.18
2022-08-30T16:02:36.867Z,59.31
2022-08-30T16:07:59.773Z,58.99
2022-08-30T16:13:20.798Z,59.52
2022-08-30T16:18:41.959Z,58.83
2022-08-30T16:24:04.190Z,59.27
2022-08-30T16:29:25.456Z,58.82
2022-08-30T16:34:46.271Z,59.23
2022-08-30T16:40:07.682Z,59.66
2022-08-30T16:45:34.275Z,59.95
2022-08-30T16:50:56.771Z,59.53
2022-08-30T16:56:21.391Z,59.52
2022-08-30T17:07:24.821Z,59.57
2022-08-30T17:12:45.857Z,59.93
2022-08-30T17:18:07.165Z,59.82
2022-08-30T17:23:29.976Z,60.08
2022-08-30T17:28:50.918Z,60.10
2022-08-30T17:34:13.226Z,59.88
2022-08-30T17:39:34.843Z,60.34
2022-08-30T17:44:58.035Z,60.11
2022-08-30T17:50:22.159Z,60.19
2022-08-30T17:55:49.149Z,60.21
2022-08-30T18:01:13.455Z,60.21
2022-08-30T18:06:35.301Z,60.29
2022-08-30T18:11:56.365Z,60.11
2022-08-30T18:17:17.503Z,60.01
2022-08-30T18:22:38.170Z,60.52
2022-08-30T18:27:59.287Z,60.49
2022-08-30T18:33:20.028Z,60.64
2022-08-30T18:38:42.573Z,60.71
2022-08-30T18:44:26.327Z,60.79
2022-08-30T18:49:44.543Z,60.92
2022-08-30T18:55:05.968Z,61.09
2022-08-30T19:00:27.166Z,61.13
2022-08-30T19:05:47.869Z,61.29
2022-08-30T19:11:09.490Z,61.44
2022-08-30T19:16:30.262Z,61.28
2022-08-30T19:21:51.942Z,61.29
2022-08-30T19:27:12.842Z,61.34
2022-08-30T19:32:33.710Z,61.10
2022-08-30T19:37:54.813Z,60.93
2022-08-30T19:43:15.601Z,61.20
2022-08-30T19:48:43.166Z,61.69
2022-08-30T19:54:04.895Z,61.61
2022-08-30T19:59:29.302Z,61.75
2022-08-30T20:04:50.561Z,61.55
2022-08-30T20:10:13.909Z,61.77
2022-08-30T20:15:34.545Z,61.42
2022-08-30T20:20:57.044Z,61.46
2022-08-30T20:24:23.219Z,60.02
2022-08-30T20:26:18.122Z,61.51
2022-08-30T20:31:39.160Z,61.75
2022-08-30T20:37:00.073Z,61.70
2022-08-30T20:42:21.154Z,61.71
2022-08-30T20:47:43.230Z,61.84
2022-08-30T20:53:04.321Z,62.04
2022-08-30T20:58:25.259Z,61.89
2022-08-30T21:03:47.698Z,61.92
2022-08-30T21:09:09.098Z,61.94
2022-08-30T21:14:29.786Z,62.02
2022-08-30T21:19:54.463Z,61.96
2022-08-30T21:25:15.267Z,62.13
2022-08-30T21:30:36.797Z,62.02
2022-08-30T21:36:17.685Z,61.59
2022-08-30T21:41:39.415Z,61.55
2022-08-30T21:46:59.973Z,61.63
2022-08-30T21:52:20.767Z,61.97
2022-08-30T21:57:41.378Z,61.76
2022-08-30T22:03:02.402Z,61.74
2022-08-30T22:08:23.122Z,61.71
2022-08-30T22:13:46.239Z,61.56
2022-08-30T22:19:09.550Z,61.71
2022-08-30T22:24:32.868Z,61.63
2022-08-30T22:29:53.746Z,61.93
2022-08-30T22:35:14.406Z,62.25
2022-08-30T22:40:35.560Z,61.76
2022-08-30T22:45:57.985Z,61.91
2022-08-30T22:51:21.462Z,61.90
2022-08-30T22:56:42.299Z,62.05
2022-08-30T23:02:03.471Z,62.02
2022-08-30T23:07:24.839Z,62.19
2022-08-30T23:12:45.537Z,61.98
2022-08-30T23:18:06.597Z,62.09
2022-08-30T23:23:45.956Z,61.98
2022-08-30T23:29:25.860Z,61.99
2022-08-30T23:35:05.516Z,61.51
2022-08-30T23:40:45.318Z,61.81
2022-08-30T23:46:24.381Z,61.94
2022-08-30T23:52:03.408Z,62.03
2022-08-30T23:57:43.151Z,62.03
